sensor_id;sensor_type;location;lat;lon;timestamp;temperature;humidity
47168;DHT22;32931;47.778;17.806;2024-01-16T00:00:18;1.60;99.90
47168;DHT22;32931;47.778;17.806;2024-01-16T00:02:44;1.70;99.90
47168;DHT22;32931;47.778;17.806;2024-01-16T00:05:10;1.70;99.90
47168;DHT22;32931;47.778;17.806;2024-01-16T00:07:39;1.70;99.90
47168;DHT22;32931;47.778;17.806;2024-01-16T00:10:08;1.60;99.90
47168;DHT22;32931;47.778;17.806;2024-01-16T00:12:35;1.60;99.90
47168;DHT22;32931;47.778;17.806;2024-01-16T00:15:01;1.60;99.90
47168;DHT22;32931;47.778;17.806;2024-01-16T00:17:27;1.60;99.90
47168;DHT22;32931;47.778;17.806;2024-01-16T00:19:53;1.60;99.90
47168;DHT22;32931;47.778;17.806;2024-01-16T00:22:19;1.60;99.90
47168;DHT22;32931;47.778;17.806;2024-01-16T00:24:45;1.50;99.90
47168;DHT22;32931;47.778;17.806;2024-01-16T00:27:11;1.50;99.90
47168;DHT22;32931;47.778;17.806;2024-01-16T00:29:38;1.50;99.90
47168;DHT22;32931;47.778;17.806;2024-01-16T00:32:04;1.50;99.90
47168;DHT22;32931;47.778;17.806;2024-01-16T00:34:30;1.40;99.90
47168;DHT22;32931;47.778;17.806;2024-01-16T00:36:56;1.30;99.90
47168;DHT22;32931;47.778;17.806;2024-01-16T00:39:23;1.30;99.90
47168;DHT22;32931;47.778;17.806;2024-01-16T00:41:49;1.20;99.90
47168;DHT22;32931;47.778;17.806;2024-01-16T00:44:15;1.30;99.90
47168;DHT22;32931;47.778;17.806;2024-01-16T00:46:41;1.30;99.90
47168;DHT22;32931;47.778;17.806;2024-01-16T00:49:07;1.30;99.90
47168;DHT22;32931;47.778;17.806;2024-01-16T00:51:33;1.30;99.90
47168;DHT22;32931;47.778;17.806;2024-01-16T00:54:00;1.30;99.90
47168;DHT22;32931;47.778;17.806;2024-01-16T00:56:26;1.30;99.90
47168;DHT22;32931;47.778;17.806;2024-01-16T00:58:53;1.30;99.90
47168;DHT22;32931;47.778;17.806;2024-01-16T01:01:20;1.20;99.90
47168;DHT22;32931;47.778;17.806;2024-01-16T01:03:46;1.30;99.90
47168;DHT22;32931;47.778;17.806;2024-01-16T01:06:12;1.30;99.90
47168;DHT22;32931;47.778;17.806;2024-01-16T01:08:38;1.20;99.90
47168;DHT22;32931;47.778;17.806;2024-01-16T01:11:04;1.20;99.90
47168;DHT22;32931;47.778;17.806;2024-01-16T01:13:30;1.20;99.90
47168;DHT22;32931;47.778;17.806;2024-01-16T01:15:56;1.20;99.90
47168;DHT22;32931;47.778;17.806;2024-01-16T01:18:23;1.10;99.90
47168;DHT22;32931;47.778;17.806;2024-01-16T01:20:49;1.20;99.90
47168;DHT22;32931;47.778;17.806;2024-01-16T01:23:15;1.20;99.90
47168;DHT22;32931;47.778;17.806;2024-01-16T01:25:41;1.10;99.90
47168;DHT22;32931;47.778;17.806;2024-01-16T01:28:09;1.10;99.90
47168;DHT22;32931;47.778;17.806;2024-01-16T01:30:35;1.20;99.90
47168;DHT22;32931;47.778;17.806;2024-01-16T01:33:01;1.10;99.90
47168;DHT22;32931;47.778;17.806;2024-01-16T01:35:28;1.20;99.80
47168;DHT22;32931;47.778;17.806;2024-01-16T01:37:54;1.20;99.70
47168;DHT22;32931;47.778;17.806;2024-01-16T01:40:20;1.20;99.50
47168;DHT22;32931;47.778;17.806;2024-01-16T01:42:46;1.20;99.50
47168;DHT22;32931;47.778;17.806;2024-01-16T01:45:13;1.20;99.20
47168;DHT22;32931;47.778;17.806;2024-01-16T01:47:42;1.30;99.10
47168;DHT22;32931;47.778;17.806;2024-01-16T01:50:09;1.30;99.00
47168;DHT22;32931;47.778;17.806;2024-01-16T01:52:37;1.30;98.80
47168;DHT22;32931;47.778;17.806;2024-01-16T01:55:06;1.30;98.90
47168;DHT22;32931;47.778;17.806;2024-01-16T01:57:34;1.40;98.70
47168;DHT22;32931;47.778;17.806;2024-01-16T02:00:00;1.40;98.70
47168;DHT22;32931;47.778;17.806;2024-01-16T02:02:27;1.40;98.70
47168;DHT22;32931;47.778;17.806;2024-01-16T02:04:54;1.40;98.50
47168;DHT22;32931;47.778;17.806;2024-01-16T02:07:20;1.40;98.70
47168;DHT22;32931;47.778;17.806;2024-01-16T02:09:47;1.40;98.70
47168;DHT22;32931;47.778;17.806;2024-01-16T02:12:13;1.50;98.70
47168;DHT22;32931;47.778;17.806;2024-01-16T02:14:39;1.50;98.70
47168;DHT22;32931;47.778;17.806;2024-01-16T02:17:05;1.50;98.50
47168;DHT22;32931;47.778;17.806;2024-01-16T02:19:32;1.60;98.60
47168;DHT22;32931;47.778;17.806;2024-01-16T02:22:04;1.60;98.60
47168;DHT22;32931;47.778;17.806;2024-01-16T02:24:33;1.50;98.60
47168;DHT22;32931;47.778;17.806;2024-01-16T02:27:00;1.50;98.60
47168;DHT22;32931;47.778;17.806;2024-01-16T02:29:26;1.50;98.50
47168;DHT22;32931;47.778;17.806;2024-01-16T02:31:52;1.50;98.50
47168;DHT22;32931;47.778;17.806;2024-01-16T02:34:19;1.50;98.50
47168;DHT22;32931;47.778;17.806;2024-01-16T02:36:45;1.50;98.50
47168;DHT22;32931;47.778;17.806;2024-01-16T02:39:11;1.50;98.50
47168;DHT22;32931;47.778;17.806;2024-01-16T02:41:37;1.50;98.40
47168;DHT22;32931;47.778;17.806;2024-01-16T02:44:03;1.50;98.50
47168;DHT22;32931;47.778;17.806;2024-01-16T02:46:29;1.40;98.50
47168;DHT22;32931;47.778;17.806;2024-01-16T02:48:56;1.40;98.50
47168;DHT22;32931;47.778;17.806;2024-01-16T02:51:22;1.40;98.50
47168;DHT22;32931;47.778;17.806;2024-01-16T02:53:48;1.40;98.60
47168;DHT22;32931;47.778;17.806;2024-01-16T02:56:14;1.30;98.50
47168;DHT22;32931;47.778;17.806;2024-01-16T02:58:40;1.30;98.50
47168;DHT22;32931;47.778;17.806;2024-01-16T03:01:07;1.30;98.50
47168;DHT22;32931;47.778;17.806;2024-01-16T03:03:33;1.30;98.50
47168;DHT22;32931;47.778;17.806;2024-01-16T03:05:59;1.30;98.40
47168;DHT22;32931;47.778;17.806;2024-01-16T03:08:25;1.30;98.40
47168;DHT22;32931;47.778;17.806;2024-01-16T03:10:52;1.30;98.20
47168;DHT22;32931;47.778;17.806;2024-01-16T03:13:18;1.30;98.00
47168;DHT22;32931;47.778;17.806;2024-01-16T03:15:44;1.30;97.90
47168;DHT22;32931;47.778;17.806;2024-01-16T03:18:11;1.30;97.80
47168;DHT22;32931;47.778;17.806;2024-01-16T03:20:38;1.40;97.80
47168;DHT22;32931;47.778;17.806;2024-01-16T03:23:04;1.40;97.50
47168;DHT22;32931;47.778;17.806;2024-01-16T03:25:30;1.50;97.20
47168;DHT22;32931;47.778;17.806;2024-01-16T03:27:56;1.50;97.10
47168;DHT22;32931;47.778;17.806;2024-01-16T03:30:22;1.60;97.00
47168;DHT22;32931;47.778;17.806;2024-01-16T03:32:48;1.50;97.00
47168;DHT22;32931;47.778;17.806;2024-01-16T03:35:14;1.50;97.10
47168;DHT22;32931;47.778;17.806;2024-01-16T03:37:41;1.50;97.00
47168;DHT22;32931;47.778;17.806;2024-01-16T03:40:07;1.50;96.90
47168;DHT22;32931;47.778;17.806;2024-01-16T03:42:33;1.50;96.80
47168;DHT22;32931;47.778;17.806;2024-01-16T03:44:59;1.50;97.00
47168;DHT22;32931;47.778;17.806;2024-01-16T03:47:25;1.40;96.70
47168;DHT22;32931;47.778;17.806;2024-01-16T03:49:52;1.40;96.70
47168;DHT22;32931;47.778;17.806;2024-01-16T03:52:18;1.40;96.70
47168;DHT22;32931;47.778;17.806;2024-01-16T03:54:44;1.30;96.70
47168;DHT22;32931;47.778;17.806;2024-01-16T03:57:10;1.40;96.80
47168;DHT22;32931;47.778;17.806;2024-01-16T03:59:37;1.30;96.80
47168;DHT22;32931;47.778;17.806;2024-01-16T04:02:04;1.30;96.90
47168;DHT22;32931;47.778;17.806;2024-01-16T04:04:30;1.30;96.60
47168;DHT22;32931;47.778;17.806;2024-01-16T04:06:56;1.30;96.70
47168;DHT22;32931;47.778;17.806;2024-01-16T04:09:22;1.20;96.60
47168;DHT22;32931;47.778;17.806;2024-01-16T04:11:51;1.20;96.70
47168;DHT22;32931;47.778;17.806;2024-01-16T04:14:18;1.20;96.70
47168;DHT22;32931;47.778;17.806;2024-01-16T04:16:44;1.20;96.70
47168;DHT22;32931;47.778;17.806;2024-01-16T04:19:10;1.10;96.50
47168;DHT22;32931;47.778;17.806;2024-01-16T04:21:36;1.10;96.40
47168;DHT22;32931;47.778;17.806;2024-01-16T04:24:03;1.00;96.40
47168;DHT22;32931;47.778;17.806;2024-01-16T04:26:29;1.00;96.50
47168;DHT22;32931;47.778;17.806;2024-01-16T04:28:55;1.00;96.60
47168;DHT22;32931;47.778;17.806;2024-01-16T04:31:21;1.00;96.50
47168;DHT22;32931;47.778;17.806;2024-01-16T04:33:48;1.00;96.60
47168;DHT22;32931;47.778;17.806;2024-01-16T04:36:14;1.00;96.50
47168;DHT22;32931;47.778;17.806;2024-01-16T04:38:40;1.00;96.50
47168;DHT22;32931;47.778;17.806;2024-01-16T04:41:06;1.00;96.70
47168;DHT22;32931;47.778;17.806;2024-01-16T04:43:32;1.00;96.50
47168;DHT22;32931;47.778;17.806;2024-01-16T04:45:58;1.00;96.50
47168;DHT22;32931;47.778;17.806;2024-01-16T04:48:24;1.10;96.70
47168;DHT22;32931;47.778;17.806;2024-01-16T04:50:51;1.10;96.50
47168;DHT22;32931;47.778;17.806;2024-01-16T04:53:17;1.10;96.40
47168;DHT22;32931;47.778;17.806;2024-01-16T04:55:43;1.10;96.70
47168;DHT22;32931;47.778;17.806;2024-01-16T04:58:09;1.10;96.80
47168;DHT22;32931;47.778;17.806;2024-01-16T05:00:37;1.10;96.80
47168;DHT22;32931;47.778;17.806;2024-01-16T05:03:04;1.10;96.80
47168;DHT22;32931;47.778;17.806;2024-01-16T05:05:31;1.10;96.90
47168;DHT22;32931;47.778;17.806;2024-01-16T05:07:57;1.10;96.90
47168;DHT22;32931;47.778;17.806;2024-01-16T05:10:23;1.10;96.90
47168;DHT22;32931;47.778;17.806;2024-01-16T05:12:49;1.20;96.60
47168;DHT22;32931;47.778;17.806;2024-01-16T05:15:15;1.20;96.70
47168;DHT22;32931;47.778;17.806;2024-01-16T05:17:41;1.30;96.60
47168;DHT22;32931;47.778;17.806;2024-01-16T05:20:08;1.20;96.50
47168;DHT22;32931;47.778;17.806;2024-01-16T05:22:36;1.30;96.60
47168;DHT22;32931;47.778;17.806;2024-01-16T05:25:04;1.20;96.50
47168;DHT22;32931;47.778;17.806;2024-01-16T05:27:33;1.20;96.60
47168;DHT22;32931;47.778;17.806;2024-01-16T05:30:00;1.10;96.70
47168;DHT22;32931;47.778;17.806;2024-01-16T05:32:26;1.10;96.70
47168;DHT22;32931;47.778;17.806;2024-01-16T05:34:53;1.10;96.70
47168;DHT22;32931;47.778;17.806;2024-01-16T05:37:19;1.10;96.80
47168;DHT22;32931;47.778;17.806;2024-01-16T05:39:45;1.10;96.80
47168;DHT22;32931;47.778;17.806;2024-01-16T05:42:12;1.00;96.90
47168;DHT22;32931;47.778;17.806;2024-01-16T05:44:38;1.00;97.00
47168;DHT22;32931;47.778;17.806;2024-01-16T05:47:05;1.00;97.10
47168;DHT22;32931;47.778;17.806;2024-01-16T05:49:31;0.90;97.10
47168;DHT22;32931;47.778;17.806;2024-01-16T05:51:58;0.90;97.20
47168;DHT22;32931;47.778;17.806;2024-01-16T05:54:24;0.90;97.40
47168;DHT22;32931;47.778;17.806;2024-01-16T05:56:50;0.80;97.60
47168;DHT22;32931;47.778;17.806;2024-01-16T05:59:16;0.80;97.60
47168;DHT22;32931;47.778;17.806;2024-01-16T06:01:42;0.70;97.60
47168;DHT22;32931;47.778;17.806;2024-01-16T06:04:08;0.70;97.80
47168;DHT22;32931;47.778;17.806;2024-01-16T06:06:34;0.60;97.80
47168;DHT22;32931;47.778;17.806;2024-01-16T06:09:00;0.60;97.80
47168;DHT22;32931;47.778;17.806;2024-01-16T06:11:32;0.60;97.90
47168;DHT22;32931;47.778;17.806;2024-01-16T06:13:59;0.50;97.90
47168;DHT22;32931;47.778;17.806;2024-01-16T06:16:27;0.50;98.00
47168;DHT22;32931;47.778;17.806;2024-01-16T06:18:53;0.40;98.10
47168;DHT22;32931;47.778;17.806;2024-01-16T06:21:20;0.40;98.10
47168;DHT22;32931;47.778;17.806;2024-01-16T06:23:46;0.40;98.10
47168;DHT22;32931;47.778;17.806;2024-01-16T06:26:12;0.40;98.10
47168;DHT22;32931;47.778;17.806;2024-01-16T06:28:38;0.40;98.10
47168;DHT22;32931;47.778;17.806;2024-01-16T06:31:06;0.30;98.00
47168;DHT22;32931;47.778;17.806;2024-01-16T06:33:32;0.30;98.00
47168;DHT22;32931;47.778;17.806;2024-01-16T06:35:58;0.30;97.90
47168;DHT22;32931;47.778;17.806;2024-01-16T06:38:24;0.30;98.00
47168;DHT22;32931;47.778;17.806;2024-01-16T06:40:50;0.30;97.90
47168;DHT22;32931;47.778;17.806;2024-01-16T06:43:17;0.30;97.50
47168;DHT22;32931;47.778;17.806;2024-01-16T06:45:43;0.40;97.60
47168;DHT22;32931;47.778;17.806;2024-01-16T06:48:10;0.40;97.50
47168;DHT22;32931;47.778;17.806;2024-01-16T06:50:36;0.40;97.40
47168;DHT22;32931;47.778;17.806;2024-01-16T06:53:03;0.40;97.30
47168;DHT22;32931;47.778;17.806;2024-01-16T06:55:29;0.50;97.20
47168;DHT22;32931;47.778;17.806;2024-01-16T06:57:55;0.50;97.10
47168;DHT22;32931;47.778;17.806;2024-01-16T07:00:21;0.50;96.90
47168;DHT22;32931;47.778;17.806;2024-01-16T07:02:48;0.50;96.90
47168;DHT22;32931;47.778;17.806;2024-01-16T07:05:17;0.60;96.90
47168;DHT22;32931;47.778;17.806;2024-01-16T07:07:43;0.60;96.80
47168;DHT22;32931;47.778;17.806;2024-01-16T07:10:09;0.60;96.80
47168;DHT22;32931;47.778;17.806;2024-01-16T07:12:44;0.60;96.80
47168;DHT22;32931;47.778;17.806;2024-01-16T07:15:11;0.60;96.60
47168;DHT22;32931;47.778;17.806;2024-01-16T07:17:37;0.60;96.60
47168;DHT22;32931;47.778;17.806;2024-01-16T07:20:03;0.70;96.40
47168;DHT22;32931;47.778;17.806;2024-01-16T07:22:30;0.70;96.30
47168;DHT22;32931;47.778;17.806;2024-01-16T07:24:56;0.80;96.30
47168;DHT22;32931;47.778;17.806;2024-01-16T07:27:22;0.80;96.30
47168;DHT22;32931;47.778;17.806;2024-01-16T07:29:48;0.80;96.10
47168;DHT22;32931;47.778;17.806;2024-01-16T07:32:14;0.90;95.80
47168;DHT22;32931;47.778;17.806;2024-01-16T07:34:40;1.00;95.80
47168;DHT22;32931;47.778;17.806;2024-01-16T07:37:06;1.10;95.30
47168;DHT22;32931;47.778;17.806;2024-01-16T07:39:32;1.10;95.10
47168;DHT22;32931;47.778;17.806;2024-01-16T07:41:59;1.20;94.90
47168;DHT22;32931;47.778;17.806;2024-01-16T07:44:25;1.30;94.70
47168;DHT22;32931;47.778;17.806;2024-01-16T07:46:51;1.30;94.40
47168;DHT22;32931;47.778;17.806;2024-01-16T07:49:17;1.40;93.80
47168;DHT22;32931;47.778;17.806;2024-01-16T07:51:43;1.40;93.80
47168;DHT22;32931;47.778;17.806;2024-01-16T07:54:10;1.50;93.80
47168;DHT22;32931;47.778;17.806;2024-01-16T07:56:36;1.60;93.80
47168;DHT22;32931;47.778;17.806;2024-01-16T07:59:03;1.60;93.80
47168;DHT22;32931;47.778;17.806;2024-01-16T08:01:29;1.70;93.50
47168;DHT22;32931;47.778;17.806;2024-01-16T08:03:56;1.80;93.60
47168;DHT22;32931;47.778;17.806;2024-01-16T08:06:23;1.90;93.20
47168;DHT22;32931;47.778;17.806;2024-01-16T08:08:49;2.00;93.00
47168;DHT22;32931;47.778;17.806;2024-01-16T08:11:18;2.00;92.40
47168;DHT22;32931;47.778;17.806;2024-01-16T08:13:44;2.10;92.80
47168;DHT22;32931;47.778;17.806;2024-01-16T08:16:10;2.20;93.20
47168;DHT22;32931;47.778;17.806;2024-01-16T08:18:37;2.30;92.90
47168;DHT22;32931;47.778;17.806;2024-01-16T08:21:03;2.30;93.00
47168;DHT22;32931;47.778;17.806;2024-01-16T08:23:29;2.20;92.70
47168;DHT22;32931;47.778;17.806;2024-01-16T08:25:55;2.40;92.90
47168;DHT22;32931;47.778;17.806;2024-01-16T08:28:21;2.40;92.50
47168;DHT22;32931;47.778;17.806;2024-01-16T08:30:50;2.40;92.40
47168;DHT22;32931;47.778;17.806;2024-01-16T08:33:16;2.40;92.40
47168;DHT22;32931;47.778;17.806;2024-01-16T08:35:42;2.50;92.20
47168;DHT22;32931;47.778;17.806;2024-01-16T08:38:08;2.50;91.80
47168;DHT22;32931;47.778;17.806;2024-01-16T08:40:34;2.50;91.60
47168;DHT22;32931;47.778;17.806;2024-01-16T08:43:00;2.50;91.80
47168;DHT22;32931;47.778;17.806;2024-01-16T08:45:26;2.50;91.80
47168;DHT22;32931;47.778;17.806;2024-01-16T08:47:52;2.60;91.20
47168;DHT22;32931;47.778;17.806;2024-01-16T08:50:18;2.60;91.50
47168;DHT22;32931;47.778;17.806;2024-01-16T08:52:45;2.70;91.20
47168;DHT22;32931;47.778;17.806;2024-01-16T08:55:11;2.90;91.00
47168;DHT22;32931;47.778;17.806;2024-01-16T08:57:37;2.90;90.80
47168;DHT22;32931;47.778;17.806;2024-01-16T09:00:04;3.10;90.70
47168;DHT22;32931;47.778;17.806;2024-01-16T09:02:31;3.10;90.50
47168;DHT22;32931;47.778;17.806;2024-01-16T09:04:57;3.20;90.20
47168;DHT22;32931;47.778;17.806;2024-01-16T09:07:25;3.30;89.70
47168;DHT22;32931;47.778;17.806;2024-01-16T09:09:51;3.30;88.00
47168;DHT22;32931;47.778;17.806;2024-01-16T09:12:17;3.40;89.30
47168;DHT22;32931;47.778;17.806;2024-01-16T09:14:43;3.40;88.50
47168;DHT22;32931;47.778;17.806;2024-01-16T09:17:09;3.40;87.00
47168;DHT22;32931;47.778;17.806;2024-01-16T09:19:36;3.40;88.00
47168;DHT22;32931;47.778;17.806;2024-01-16T09:22:02;3.40;86.90
47168;DHT22;32931;47.778;17.806;2024-01-16T09:24:30;3.40;85.00
47168;DHT22;32931;47.778;17.806;2024-01-16T09:26:56;3.40;86.10
47168;DHT22;32931;47.778;17.806;2024-01-16T09:29:24;3.40;86.50
47168;DHT22;32931;47.778;17.806;2024-01-16T09:31:50;3.40;85.80
47168;DHT22;32931;47.778;17.806;2024-01-16T09:34:19;3.40;86.90
47168;DHT22;32931;47.778;17.806;2024-01-16T09:36:45;3.40;85.40
47168;DHT22;32931;47.778;17.806;2024-01-16T09:39:12;3.50;86.30
47168;DHT22;32931;47.778;17.806;2024-01-16T09:41:39;3.50;84.80
47168;DHT22;32931;47.778;17.806;2024-01-16T09:44:07;3.50;85.20
47168;DHT22;32931;47.778;17.806;2024-01-16T09:46:37;3.50;85.10
47168;DHT22;32931;47.778;17.806;2024-01-16T09:49:04;3.60;84.90
47168;DHT22;32931;47.778;17.806;2024-01-16T09:51:30;3.70;86.00
47168;DHT22;32931;47.778;17.806;2024-01-16T09:53:56;3.80;85.60
47168;DHT22;32931;47.778;17.806;2024-01-16T09:56:23;3.80;84.50
47168;DHT22;32931;47.778;17.806;2024-01-16T09:58:58;3.90;86.30
47168;DHT22;32931;47.778;17.806;2024-01-16T10:01:26;3.90;84.50
47168;DHT22;32931;47.778;17.806;2024-01-16T10:03:53;4.00;84.00
47168;DHT22;32931;47.778;17.806;2024-01-16T10:06:20;4.00;83.40
47168;DHT22;32931;47.778;17.806;2024-01-16T10:08:46;4.10;83.40
47168;DHT22;32931;47.778;17.806;2024-01-16T10:11:13;4.00;80.90
47168;DHT22;32931;47.778;17.806;2024-01-16T10:13:39;4.10;82.10
47168;DHT22;32931;47.778;17.806;2024-01-16T10:16:05;4.20;80.70
47168;DHT22;32931;47.778;17.806;2024-01-16T10:18:31;4.20;82.40
47168;DHT22;32931;47.778;17.806;2024-01-16T10:20:58;4.20;82.30
47168;DHT22;32931;47.778;17.806;2024-01-16T10:23:29;4.30;82.70
47168;DHT22;32931;47.778;17.806;2024-01-16T10:26:09;4.40;82.30
47168;DHT22;32931;47.778;17.806;2024-01-16T10:28:40;4.50;79.70
47168;DHT22;32931;47.778;17.806;2024-01-16T10:31:08;4.40;80.90
47168;DHT22;32931;47.778;17.806;2024-01-16T10:33:35;4.50;80.60
47168;DHT22;32931;47.778;17.806;2024-01-16T10:38:41;4.50;80.30
47168;DHT22;32931;47.778;17.806;2024-01-16T10:41:10;4.50;79.50
47168;DHT22;32931;47.778;17.806;2024-01-16T10:43:37;4.60;78.00
47168;DHT22;32931;47.778;17.806;2024-01-16T10:46:08;4.60;78.80
47168;DHT22;32931;47.778;17.806;2024-01-16T10:48:35;4.60;79.00
47168;DHT22;32931;47.778;17.806;2024-01-16T10:51:02;4.60;78.00
47168;DHT22;32931;47.778;17.806;2024-01-16T10:53:33;4.70;78.90
47168;DHT22;32931;47.778;17.806;2024-01-16T10:56:00;4.80;76.70
47168;DHT22;32931;47.778;17.806;2024-01-16T10:58:29;4.80;78.10
47168;DHT22;32931;47.778;17.806;2024-01-16T11:01:01;4.80;78.20
47168;DHT22;32931;47.778;17.806;2024-01-16T11:06:07;5.00;77.80
47168;DHT22;32931;47.778;17.806;2024-01-16T11:08:37;5.00;76.80
47168;DHT22;32931;47.778;17.806;2024-01-16T11:11:04;4.90;76.40
47168;DHT22;32931;47.778;17.806;2024-01-16T11:13:34;4.90;75.90
47168;DHT22;32931;47.778;17.806;2024-01-16T11:16:02;5.00;75.70
47168;DHT22;32931;47.778;17.806;2024-01-16T11:18:34;5.00;74.60
47168;DHT22;32931;47.778;17.806;2024-01-16T11:21:05;5.00;74.10
47168;DHT22;32931;47.778;17.806;2024-01-16T11:23:32;5.00;75.30
47168;DHT22;32931;47.778;17.806;2024-01-16T11:26:30;5.00;73.30
47168;DHT22;32931;47.778;17.806;2024-01-16T11:29:00;5.00;76.20
47168;DHT22;32931;47.778;17.806;2024-01-16T11:31:33;5.10;73.90
47168;DHT22;32931;47.778;17.806;2024-01-16T11:34:01;5.00;73.40
47168;DHT22;32931;47.778;17.806;2024-01-16T11:39:19;5.10;73.50
47168;DHT22;32931;47.778;17.806;2024-01-16T11:41:56;5.00;74.70
47168;DHT22;32931;47.778;17.806;2024-01-16T11:44:48;5.10;72.60
47168;DHT22;32931;47.778;17.806;2024-01-16T11:47:20;5.00;71.00
47168;DHT22;32931;47.778;17.806;2024-01-16T11:49:48;5.00;72.90
47168;DHT22;32931;47.778;17.806;2024-01-16T11:52:14;5.10;72.40
47168;DHT22;32931;47.778;17.806;2024-01-16T11:54:41;5.10;72.10
47168;DHT22;32931;47.778;17.806;2024-01-16T11:57:34;5.10;71.60
47168;DHT22;32931;47.778;17.806;2024-01-16T12:00:04;5.00;72.00
47168;DHT22;32931;47.778;17.806;2024-01-16T12:05:13;5.10;71.70
47168;DHT22;32931;47.778;17.806;2024-01-16T12:07:47;5.10;72.90
47168;DHT22;32931;47.778;17.806;2024-01-16T12:10:22;5.10;72.40
47168;DHT22;32931;47.778;17.806;2024-01-16T12:12:50;5.10;72.90
47168;DHT22;32931;47.778;17.806;2024-01-16T12:15:17;5.10;73.70
47168;DHT22;32931;47.778;17.806;2024-01-16T12:18:02;5.10;73.70
47168;DHT22;32931;47.778;17.806;2024-01-16T12:20:31;5.10;73.60
47168;DHT22;32931;47.778;17.806;2024-01-16T12:23:07;5.20;75.20
47168;DHT22;32931;47.778;17.806;2024-01-16T12:25:36;5.20;74.50
47168;DHT22;32931;47.778;17.806;2024-01-16T12:28:07;5.30;73.80
47168;DHT22;32931;47.778;17.806;2024-01-16T12:30:37;5.30;73.90
47168;DHT22;32931;47.778;17.806;2024-01-16T12:33:05;5.30;73.40
47168;DHT22;32931;47.778;17.806;2024-01-16T12:35:38;5.30;72.60
47168;DHT22;32931;47.778;17.806;2024-01-16T12:38:07;5.30;72.30
47168;DHT22;32931;47.778;17.806;2024-01-16T12:40:36;5.20;72.40
47168;DHT22;32931;47.778;17.806;2024-01-16T12:43:03;5.20;70.30
47168;DHT22;32931;47.778;17.806;2024-01-16T12:45:30;5.20;71.80
47168;DHT22;32931;47.778;17.806;2024-01-16T12:47:58;5.20;71.80
47168;DHT22;32931;47.778;17.806;2024-01-16T12:50:27;5.20;71.80
47168;DHT22;32931;47.778;17.806;2024-01-16T12:53:12;5.30;72.60
47168;DHT22;32931;47.778;17.806;2024-01-16T12:55:39;5.30;72.30
47168;DHT22;32931;47.778;17.806;2024-01-16T12:58:22;5.30;72.40
47168;DHT22;32931;47.778;17.806;2024-01-16T13:00:54;5.30;70.90
47168;DHT22;32931;47.778;17.806;2024-01-16T13:03:25;5.20;70.50
47168;DHT22;32931;47.778;17.806;2024-01-16T13:05:56;5.20;71.30
47168;DHT22;32931;47.778;17.806;2024-01-16T13:08:23;5.20;69.90
47168;DHT22;32931;47.778;17.806;2024-01-16T13:11:07;5.20;70.00
47168;DHT22;32931;47.778;17.806;2024-01-16T13:13:36;5.20;70.50
47168;DHT22;32931;47.778;17.806;2024-01-16T13:16:05;5.20;71.00
47168;DHT22;32931;47.778;17.806;2024-01-16T13:18:32;5.20;70.90
47168;DHT22;32931;47.778;17.806;2024-01-16T13:20:59;5.20;70.40
47168;DHT22;32931;47.778;17.806;2024-01-16T13:23:26;5.30;70.50
47168;DHT22;32931;47.778;17.806;2024-01-16T13:25:54;5.20;69.80
47168;DHT22;32931;47.778;17.806;2024-01-16T13:28:29;5.30;69.50
47168;DHT22;32931;47.778;17.806;2024-01-16T13:30:55;5.30;70.00
47168;DHT22;32931;47.778;17.806;2024-01-16T13:33:25;5.30;70.00
47168;DHT22;32931;47.778;17.806;2024-01-16T13:35:54;5.40;69.40
47168;DHT22;32931;47.778;17.806;2024-01-16T13:38:21;5.40;69.10
47168;DHT22;32931;47.778;17.806;2024-01-16T13:40:47;5.40;70.30
47168;DHT22;32931;47.778;17.806;2024-01-16T13:43:13;5.50;70.40
47168;DHT22;32931;47.778;17.806;2024-01-16T13:45:39;5.50;70.90
47168;DHT22;32931;47.778;17.806;2024-01-16T13:48:07;5.60;71.30
47168;DHT22;32931;47.778;17.806;2024-01-16T13:50:34;5.60;71.70
47168;DHT22;32931;47.778;17.806;2024-01-16T13:53:01;5.50;70.10
47168;DHT22;32931;47.778;17.806;2024-01-16T13:55:30;5.50;69.00
47168;DHT22;32931;47.778;17.806;2024-01-16T13:57:58;5.50;69.20
47168;DHT22;32931;47.778;17.806;2024-01-16T14:00:24;5.40;69.30
47168;DHT22;32931;47.778;17.806;2024-01-16T14:02:50;5.40;69.60
47168;DHT22;32931;47.778;17.806;2024-01-16T14:05:18;5.30;69.70
47168;DHT22;32931;47.778;17.806;2024-01-16T14:07:46;5.30;69.60
47168;DHT22;32931;47.778;17.806;2024-01-16T14:10:14;5.30;69.70
47168;DHT22;32931;47.778;17.806;2024-01-16T14:12:42;5.30;69.90
47168;DHT22;32931;47.778;17.806;2024-01-16T14:15:09;5.30;70.30
47168;DHT22;32931;47.778;17.806;2024-01-16T14:17:46;5.30;70.90
47168;DHT22;32931;47.778;17.806;2024-01-16T14:20:13;5.30;71.40
47168;DHT22;32931;47.778;17.806;2024-01-16T14:22:40;5.40;71.70
47168;DHT22;32931;47.778;17.806;2024-01-16T14:25:07;5.40;71.80
47168;DHT22;32931;47.778;17.806;2024-01-16T14:27:42;5.40;71.60
47168;DHT22;32931;47.778;17.806;2024-01-16T14:30:10;5.40;71.70
47168;DHT22;32931;47.778;17.806;2024-01-16T14:32:42;5.30;71.60
47168;DHT22;32931;47.778;17.806;2024-01-16T14:35:09;5.30;72.50
47168;DHT22;32931;47.778;17.806;2024-01-16T14:37:36;5.30;73.10
47168;DHT22;32931;47.778;17.806;2024-01-16T14:40:04;5.30;73.10
47168;DHT22;32931;47.778;17.806;2024-01-16T14:42:44;5.30;73.10
47168;DHT22;32931;47.778;17.806;2024-01-16T14:45:10;5.30;73.70
47168;DHT22;32931;47.778;17.806;2024-01-16T14:47:38;5.30;73.90
47168;DHT22;32931;47.778;17.806;2024-01-16T14:50:05;5.30;74.60
47168;DHT22;32931;47.778;17.806;2024-01-16T14:52:31;5.20;75.00
47168;DHT22;32931;47.778;17.806;2024-01-16T14:55:01;5.20;75.00
47168;DHT22;32931;47.778;17.806;2024-01-16T14:57:28;5.10;75.10
47168;DHT22;32931;47.778;17.806;2024-01-16T14:59:56;5.00;75.40
47168;DHT22;32931;47.778;17.806;2024-01-16T15:02:23;5.00;75.60
47168;DHT22;32931;47.778;17.806;2024-01-16T15:04:49;4.90;75.70
47168;DHT22;32931;47.778;17.806;2024-01-16T15:07:15;4.80;76.10
47168;DHT22;32931;47.778;17.806;2024-01-16T15:09:41;4.70;75.80
47168;DHT22;32931;47.778;17.806;2024-01-16T15:12:08;4.60;76.10
47168;DHT22;32931;47.778;17.806;2024-01-16T15:14:34;4.60;76.60
47168;DHT22;32931;47.778;17.806;2024-01-16T15:17:01;4.60;76.90
47168;DHT22;32931;47.778;17.806;2024-01-16T15:19:28;4.60;77.40
47168;DHT22;32931;47.778;17.806;2024-01-16T15:21:55;4.50;77.80
47168;DHT22;32931;47.778;17.806;2024-01-16T15:24:21;4.40;78.40
47168;DHT22;32931;47.778;17.806;2024-01-16T15:26:55;4.40;78.20
47168;DHT22;32931;47.778;17.806;2024-01-16T15:29:25;4.30;78.30
47168;DHT22;32931;47.778;17.806;2024-01-16T15:31:55;4.30;78.50
47168;DHT22;32931;47.778;17.806;2024-01-16T15:34:22;4.20;78.60
47168;DHT22;32931;47.778;17.806;2024-01-16T15:36:48;4.10;79.00
47168;DHT22;32931;47.778;17.806;2024-01-16T15:39:15;4.10;79.00
47168;DHT22;32931;47.778;17.806;2024-01-16T15:41:44;4.00;79.00